Time;durP1;ratioP1;P1;durP2;ratioP2;P2;SDS_P1;SDS_P2;PMS_P1;PMS_P2;Temp;Humidity;BMP_temperature;BMP_pressure;BME280_temperature;BME280_humidity;BME280_pressure;Samples;Min_cycle;Max_cycle;Signal;HPM_P1;HPM_P2
2021/08/16 00:00:31;;;;;;;12.95;3.08;;;;;;;16.36;94.94;100926.94;5151780;28;20271;-68
2021/08/16 00:03:02;;;;;;;11.40;3.08;;;;;;;16.38;95.04;100930.25;5150769;28;20034;-68
2021/08/16 00:05:33;;;;;;;10.00;3.10;;;;;;;16.37;95.00;100920.69;5151787;29;20023;-68
2021/08/16 00:08:07;;;;;;;15.82;3.55;;;;;;;16.37;95.13;100924.13;5150944;28;20039;-68
2021/08/16 00:10:38;;;;;;;10.27;3.33;;;;;;;16.37;95.37;100925.97;5150710;29;20412;-68
2021/08/16 00:13:10;;;;;;;15.75;3.30;;;;;;;16.38;95.30;100927.59;5151935;28;20317;-68
2021/08/16 00:15:41;;;;;;;12.90;3.67;;;;;;;16.44;94.95;100925.13;5151299;28;20058;-68
2021/08/16 00:18:12;;;;;;;6.80;2.53;;;;;;;16.45;94.54;100915.38;5151311;28;20030;-67
2021/08/16 00:20:44;;;;;;;9.35;2.75;;;;;;;16.43;94.64;100915.53;5150728;28;20094;-69
2021/08/16 00:23:15;;;;;;;11.48;3.22;;;;;;;16.42;94.96;100916.53;5151258;28;20035;-68
2021/08/16 00:25:46;;;;;;;12.13;3.38;;;;;;;16.39;95.17;100910.75;5150726;29;22584;-68
2021/08/16 00:28:18;;;;;;;16.38;3.88;;;;;;;16.39;95.61;100916.84;5150846;28;20030;-68
2021/08/16 00:30:49;;;;;;;10.65;3.10;;;;;;;16.35;95.74;100910.25;5150666;28;20130;-68
2021/08/16 00:33:20;;;;;;;9.02;3.45;;;;;;;16.35;95.99;100917.34;5151052;28;20028;-69
2021/08/16 00:35:52;;;;;;;12.30;3.38;;;;;;;16.34;95.60;100919.19;5151952;28;20979;-69
2021/08/16 00:38:24;;;;;;;10.75;3.17;;;;;;;16.34;96.33;100908.59;5150862;28;20027;-68
2021/08/16 00:40:55;;;;;;;11.85;3.17;;;;;;;16.29;96.72;100906.47;5151208;28;20031;-69
2021/08/16 00:43:26;;;;;;;10.90;3.08;;;;;;;16.24;96.90;100903.47;5151272;28;20035;-68
2021/08/16 00:45:58;;;;;;;8.32;3.38;;;;;;;16.27;97.36;100908.44;5150006;28;20655;-69
2021/08/16 00:48:29;;;;;;;13.52;3.50;;;;;;;16.27;97.46;100903.16;5150786;28;20046;-68
2021/08/16 00:51:02;;;;;;;9.60;3.20;;;;;;;16.29;97.61;100911.75;5154240;28;20030;-68
2021/08/16 00:53:34;;;;;;;13.13;3.42;;;;;;;16.24;97.94;100911.41;5154290;28;20023;-69
2021/08/16 00:56:07;;;;;;;10.93;3.30;;;;;;;16.22;98.11;100899.38;5154817;28;20031;-68
2021/08/16 00:58:40;;;;;;;12.18;3.20;;;;;;;16.28;98.00;100901.31;5155004;29;20027;-68
2021/08/16 01:01:11;;;;;;;;;;;;;;;16.52;96.43;100903.13;5155005;28;20572;-68
2021/08/16 01:03:43;;;;;;;10.52;3.28;;;;;;;16.29;98.17;100911.75;5153658;28;19918;-68
2021/08/16 01:06:14;;;;;;;11.35;3.35;;;;;;;16.29;98.41;100910.94;5154667;28;20020;-69
2021/08/16 01:08:47;;;;;;;10.55;3.08;;;;;;;16.30;98.42;100910.75;5155178;28;20039;-68
2021/08/16 01:11:19;;;;;;;10.32;3.45;;;;;;;16.25;98.95;100915.72;5154776;28;20086;-67
2021/08/16 01:13:51;;;;;;;11.57;3.88;;;;;;;16.28;98.80;100917.19;5152220;28;20153;-68
2021/08/16 01:16:22;;;;;;;11.00;3.47;;;;;;;16.24;98.75;100919.34;5154730;28;20030;-68
2021/08/16 01:18:53;;;;;;;11.57;3.45;;;;;;;16.28;98.90;100915.38;5153620;29;20027;-68
2021/08/16 01:21:25;;;;;;;11.05;3.80;;;;;;;16.29;98.92;100921.50;5153894;28;20500;-68
2021/08/16 01:23:56;;;;;;;14.65;3.50;;;;;;;16.29;99.29;100921.50;5152870;28;20485;-68
2021/08/16 01:26:33;;;;;;;15.02;3.70;;;;;;;16.30;99.34;100923.16;5153360;29;20019;-68
2021/08/16 01:29:19;;;;;;;10.48;3.78;;;;;;;16.28;99.74;100920.66;5154859;29;20027;-68
2021/08/16 01:31:50;;;;;;;11.73;3.65;;;;;;;16.25;99.33;100917.50;5153602;29;20146;-69
2021/08/16 01:34:22;;;;;;;10.50;3.53;;;;;;;16.24;99.77;100921.16;5153471;28;20384;-68
2021/08/16 01:36:53;;;;;;;10.45;3.60;;;;;;;16.21;100.00;100930.25;5153448;29;20033;-68
2021/08/16 01:39:26;;;;;;;10.65;3.60;;;;;;;16.22;100.00;100910.75;5153849;29;20024;-70
2021/08/16 01:41:57;;;;;;;11.77;3.58;;;;;;;16.20;100.00;100911.91;5152807;28;20023;-68
2021/08/16 01:44:29;;;;;;;11.85;3.97;;;;;;;16.20;100.00;100917.19;5152628;29;20030;-69
2021/08/16 01:47:00;;;;;;;9.30;2.83;;;;;;;16.21;100.00;100916.19;5153912;28;20027;-68
2021/08/16 01:49:31;;;;;;;12.68;3.80;;;;;;;16.19;100.00;100912.91;5153549;29;20655;-68
2021/08/16 01:52:03;;;;;;;8.55;3.00;;;;;;;16.16;100.00;100905.28;5153292;28;20026;-69
2021/08/16 01:54:36;;;;;;;14.10;4.03;;;;;;;16.18;100.00;100919.19;5153348;28;20027;-68
2021/08/16 01:57:07;;;;;;;11.65;3.38;;;;;;;16.17;100.00;100917.50;5152831;28;20063;-68
2021/08/16 01:59:38;;;;;;;9.90;3.42;;;;;;;16.15;100.00;100908.94;5153274;28;20123;-68
2021/08/16 02:02:09;;;;;;;9.88;3.15;;;;;;;16.12;100.00;100907.44;5150680;28;20042;-68
2021/08/16 02:04:41;;;;;;;14.07;3.27;;;;;;;16.13;100.00;100902.97;5153253;28;20030;-68
2021/08/16 02:07:12;;;;;;;19.20;3.80;;;;;;;16.14;100.00;100901.97;5151021;28;20314;-68
2021/08/16 02:09:43;;;;;;;11.85;3.40;;;;;;;16.11;100.00;100897.88;5152548;28;20039;-68
2021/08/16 02:12:14;;;;;;;10.88;3.40;;;;;;;16.08;100.00;100902.66;5153643;28;20585;-68
2021/08/16 02:14:46;;;;;;;13.55;3.92;;;;;;;16.07;100.00;100901.00;5153380;28;20023;-68
2021/08/16 02:17:17;;;;;;;12.48;3.95;;;;;;;16.07;100.00;100898.38;5152765;28;20042;-68
2021/08/16 02:19:49;;;;;;;14.60;3.53;;;;;;;16.08;100.00;100897.38;5152757;29;20027;-67
2021/08/16 02:22:20;;;;;;;10.60;3.55;;;;;;;16.07;100.00;100898.38;5153528;28;20647;-68
2021/08/16 02:24:51;;;;;;;8.90;3.50;;;;;;;16.09;100.00;100885.81;5152102;28;20082;-68
2021/08/16 02:27:23;;;;;;;13.18;3.67;;;;;;;16.04;100.00;100889.75;5152373;29;20023;-68
2021/08/16 02:29:54;;;;;;;15.18;3.53;;;;;;;16.06;100.00;100889.59;5153092;28;20074;-69
2021/08/16 02:32:25;;;;;;;10.00;3.58;;;;;;;16.05;100.00;100893.22;5153526;28;20038;-68
2021/08/16 02:34:57;;;;;;;12.55;4.13;;;;;;;15.97;100.00;100880.84;5150387;29;20050;-68
2021/08/16 02:37:28;;;;;;;13.45;4.13;;;;;;;16.00;100.00;100893.72;5153529;28;20048;-69
2021/08/16 02:39:59;;;;;;;11.37;4.00;;;;;;;16.02;100.00;100896.19;5153207;28;20019;-69
2021/08/16 02:42:31;;;;;;;12.77;4.32;;;;;;;16.02;100.00;100897.06;5152227;28;20290;-67
2021/08/16 02:45:03;;;;;;;9.57;3.80;;;;;;;15.97;100.00;100886.13;5152211;29;20023;-68
2021/08/16 02:47:34;;;;;;;13.90;4.63;;;;;;;16.01;100.00;100891.91;5153076;29;20489;-68
2021/08/16 02:50:06;;;;;;;14.85;4.55;;;;;;;16.02;100.00;100891.75;5153276;28;20085;-68
2021/08/16 02:52:38;;;;;;;10.05;3.95;;;;;;;16.06;100.00;100884.31;5152333;29;20625;-68
2021/08/16 02:55:10;;;;;;;15.50;4.28;;;;;;;16.02;100.00;100882.97;5150480;29;20060;-68
2021/08/16 02:57:41;;;;;;;9.93;4.07;;;;;;;16.01;100.00;100881.34;5152573;28;20552;-68
2021/08/16 03:00:14;;;;;;;9.98;4.13;;;;;;;16.03;100.00;100882.00;5152497;28;20054;-68
2021/08/16 03:02:45;;;;;;;14.25;4.45;;;;;;;16.06;100.00;100879.00;5153147;29;20035;-68
2021/08/16 03:05:17;;;;;;;12.23;4.45;;;;;;;16.03;100.00;100874.91;5152737;28;20026;-68
2021/08/16 03:07:49;;;;;;;15.07;5.28;;;;;;;16.05;100.00;100872.09;5152247;28;20034;-68
2021/08/16 03:10:21;;;;;;;8.75;4.32;;;;;;;16.05;100.00;100872.09;5152554;29;20121;-68
2021/08/16 03:12:52;;;;;;;12.70;4.85;;;;;;;16.05;100.00;100875.56;5151272;28;20035;-68
2021/08/16 03:15:23;;;;;;;11.35;5.03;;;;;;;16.04;100.00;100862.50;5153245;29;20023;-68
2021/08/16 03:17:55;;;;;;;10.63;5.25;;;;;;;16.08;100.00;100866.47;5152715;28;20034;-68
2021/08/16 03:20:27;;;;;;;15.45;6.05;;;;;;;16.04;100.00;100871.25;5151650;28;20059;-68
2021/08/16 03:22:58;;;;;;;16.98;6.25;;;;;;;16.02;100.00;100875.06;5152147;29;20489;-68
2021/08/16 03:25:29;;;;;;;16.95;6.68;;;;;;;16.04;100.00;100876.56;5153072;29;20027;-68
2021/08/16 03:28:01;;;;;;;12.50;6.60;;;;;;;16.02;100.00;100875.06;5152508;29;20445;-68
2021/08/16 03:30:32;;;;;;;14.35;6.03;;;;;;;16.05;100.00;100880.00;5150166;28;20436;-68
2021/08/16 03:33:03;;;;;;;14.27;7.15;;;;;;;16.05;100.00;100880.84;5152365;29;20608;-68
2021/08/16 03:35:34;;;;;;;13.25;6.63;;;;;;;16.07;100.00;100879.88;5152231;29;20037;-68
2021/08/16 03:38:06;;;;;;;16.00;6.57;;;;;;;16.08;100.00;100884.16;5152009;29;20027;-68
2021/08/16 03:40:37;;;;;;;15.40;7.22;;;;;;;16.05;100.00;100878.19;5152009;29;20020;-68
2021/08/16 03:43:11;;;;;;;13.35;7.13;;;;;;;16.08;100.00;100879.69;5152585;28;20023;-68
2021/08/16 03:45:43;;;;;;;15.40;6.95;;;;;;;16.10;100.00;100882.16;5152434;28;20050;-68
2021/08/16 03:48:15;;;;;;;14.15;6.85;;;;;;;16.09;100.00;100886.63;5152004;28;20102;-68
2021/08/16 03:50:47;;;;;;;15.20;7.40;;;;;;;16.09;100.00;100881.34;5151667;29;20030;-68
2021/08/16 03:53:18;;;;;;;15.80;6.25;;;;;;;16.11;100.00;100879.38;5151865;28;20023;-68
2021/08/16 03:55:50;;;;;;;16.83;6.90;;;;;;;16.13;100.00;100885.28;5149469;28;20055;-68
2021/08/16 03:58:21;;;;;;;16.53;6.93;;;;;;;16.10;100.00;100882.16;5152674;28;20031;-68
2021/08/16 04:00:52;;;;;;;17.85;7.10;;;;;;;16.11;100.00;100881.19;5150120;28;20295;-68
2021/08/16 04:03:23;;;;;;;17.85;6.78;;;;;;;16.08;100.00;100887.63;5152272;28;20026;-68
2021/08/16 04:05:55;;;;;;;19.75;7.20;;;;;;;16.08;100.00;100884.16;5149346;28;20038;-68
2021/08/16 04:08:26;;;;;;;15.23;6.97;;;;;;;16.11;100.00;100881.19;5152468;28;20515;-68
2021/08/16 04:10:57;;;;;;;19.42;7.50;;;;;;;16.09;100.00;100875.22;5152428;28;20061;-68
2021/08/16 04:13:29;;;;;;;12.20;6.85;;;;;;;16.15;100.00;100885.16;5149442;28;20086;-68
2021/08/16 04:16:00;;;;;;;13.65;7.25;;;;;;;16.14;100.00;100875.53;5150293;28;20474;-68
2021/08/16 04:18:31;;;;;;;14.35;6.40;;;;;;;16.14;100.00;100875.53;5150628;29;20575;-68
2021/08/16 04:21:03;;;;;;;17.05;8.20;;;;;;;16.13;100.00;100879.19;5150726;28;20078;-68
2021/08/16 04:23:34;;;;;;;15.43;7.10;;;;;;;16.13;100.00;100876.53;5152986;28;20645;-68
2021/08/16 04:26:06;;;;;;;19.80;7.40;;;;;;;16.14;100.00;100876.41;5155011;28;20049;-68
2021/08/16 04:28:37;;;;;;;16.95;7.05;;;;;;;16.12;100.00;100875.72;5154854;29;20027;-68
2021/08/16 04:31:08;;;;;;;16.45;7.82;;;;;;;16.14;100.00;100873.75;5153782;28;20074;-69
2021/08/16 04:33:39;;;;;;;14.45;6.90;;;;;;;16.17;100.00;100873.41;5155316;28;20105;-68
2021/08/16 04:36:11;;;;;;;11.80;6.88;;;;;;;16.18;100.00;100887.47;5155709;28;20031;-68
2021/08/16 04:38:42;;;;;;;17.83;7.75;;;;;;;16.16;100.00;100879.69;5155172;28;20019;-68
2021/08/16 04:41:13;;;;;;;19.50;8.40;;;;;;;16.19;100.00;100874.06;5153451;28;20024;-68
2021/08/16 04:43:45;;;;;;;14.55;8.23;;;;;;;16.14;100.00;100876.41;5154994;28;20039;-68
2021/08/16 04:46:16;;;;;;;15.68;7.90;;;;;;;16.15;100.00;100880.69;5155723;28;20413;-68
2021/08/16 04:48:48;;;;;;;19.63;8.65;;;;;;;16.17;100.00;100878.69;5155449;28;20367;-68
2021/08/16 04:51:19;;;;;;;17.95;10.02;;;;;;;16.14;100.00;100880.84;5153648;29;20035;-68
2021/08/16 04:53:50;;;;;;;20.05;9.73;;;;;;;16.15;100.00;100872.75;5155158;28;20745;-68
2021/08/16 04:56:22;;;;;;;15.43;9.13;;;;;;;16.13;100.00;100880.00;5155643;28;20034;-68
2021/08/16 04:58:56;;;;;;;19.05;10.15;;;;;;;16.11;100.00;100866.16;5154396;29;20484;-68
2021/08/16 05:01:28;;;;;;;18.23;9.38;;;;;;;16.16;100.00;100863.81;5154412;29;20465;-68
2021/08/16 05:03:59;;;;;;;14.23;10.05;;;;;;;16.16;100.00;100869.13;5154745;28;20035;-68
2021/08/16 05:06:32;;;;;;;17.58;9.35;;;;;;;16.15;100.00;100861.38;5155036;28;20027;-68
2021/08/16 05:09:03;;;;;;;;;;;;;;;16.34;100.00;100862.84;5154991;29;20031;-68
2021/08/16 05:11:35;;;;;;;20.10;11.45;;;;;;;16.11;100.00;100860.88;5155000;28;19969;-68
2021/08/16 05:14:06;;;;;;;18.48;10.02;;;;;;;16.18;100.00;100864.50;5152256;28;20127;-68
2021/08/16 05:16:38;;;;;;;17.13;10.52;;;;;;;16.17;100.00;100868.13;5154198;28;20027;-68
2021/08/16 05:19:09;;;;;;;20.27;10.88;;;;;;;16.23;100.00;100858.72;5154237;29;20508;-68
2021/08/16 05:21:40;;;;;;;18.30;10.45;;;;;;;16.24;100.00;100870.94;5154754;28;20032;-68
2021/08/16 05:24:11;;;;;;;16.30;11.23;;;;;;;16.20;100.00;100857.22;5153547;28;20039;-68
2021/08/16 05:26:43;;;;;;;15.85;10.00;;;;;;;16.31;100.00;100863.97;5154584;29;20037;-68
2021/08/16 05:29:15;;;;;;;20.77;10.65;;;;;;;16.34;100.00;100866.31;5153087;28;20031;-68
2021/08/16 05:31:46;;;;;;;16.95;10.65;;;;;;;16.41;100.00;100863.81;5152264;29;20066;-68
2021/08/16 05:34:18;;;;;;;17.63;10.82;;;;;;;16.45;100.00;100862.50;5152692;28;20019;-68
2021/08/16 05:36:49;;;;;;;15.82;11.00;;;;;;;16.49;100.00;100851.41;5151665;28;20035;-68
2021/08/16 05:39:20;;;;;;;17.13;10.50;;;;;;;16.49;100.00;100859.34;5151470;28;20019;-68
2021/08/16 05:41:52;;;;;;;16.67;10.75;;;;;;;16.51;100.00;100862.63;5150958;29;20054;-68
2021/08/16 05:44:23;;;;;;;15.48;11.35;;;;;;;16.51;100.00;100856.50;5152239;28;20020;-68
2021/08/16 05:46:55;;;;;;;20.35;12.27;;;;;;;16.51;100.00;100859.16;5153378;28;20035;-68
2021/08/16 05:49:26;;;;;;;22.15;11.57;;;;;;;16.59;100.00;100858.31;5153619;28;20027;-68
2021/08/16 05:51:57;;;;;;;15.20;10.98;;;;;;;16.61;100.00;100853.69;5153666;28;20027;-68
2021/08/16 05:54:29;;;;;;;19.15;11.40;;;;;;;16.65;100.00;100858.47;5151535;28;20122;-68
2021/08/16 05:57:00;;;;;;;15.35;11.65;;;;;;;16.70;100.00;100853.47;5152947;28;20033;-68
2021/08/16 05:59:31;;;;;;;17.50;11.40;;;;;;;16.74;100.00;100857.50;5153138;29;20066;-68
2021/08/16 06:02:03;;;;;;;22.30;12.88;;;;;;;16.80;100.00;100847.22;5153632;29;20023;-69
2021/08/16 06:04:34;;;;;;;18.42;11.63;;;;;;;16.82;100.00;100858.44;5153150;28;20031;-69
2021/08/16 06:07:06;;;;;;;21.02;12.63;;;;;;;16.86;100.00;100860.59;5148653;28;20035;-69
2021/08/16 06:09:37;;;;;;;19.92;12.38;;;;;;;16.86;100.00;100863.25;5147720;28;20504;-69
2021/08/16 06:12:08;;;;;;;18.88;11.57;;;;;;;16.94;100.00;100862.38;5149683;28;20486;-69
2021/08/16 06:14:40;;;;;;;21.20;11.73;;;;;;;16.88;100.00;100858.59;5143525;28;20627;-69
2021/08/16 06:17:11;;;;;;;19.25;11.80;;;;;;;16.97;100.00;100852.28;5142707;29;20118;-69
2021/08/16 06:19:43;;;;;;;19.55;11.63;;;;;;;16.98;100.00;100850.47;5150553;28;20027;-68
2021/08/16 06:22:14;;;;;;;18.90;12.02;;;;;;;16.98;100.00;100851.28;5150629;28;20517;-68
2021/08/16 06:24:45;;;;;;;16.92;11.88;;;;;;;17.07;100.00;100845.94;5148891;29;20035;-68
2021/08/16 06:27:16;;;;;;;21.15;11.05;;;;;;;17.09;100.00;100852.72;5150996;28;20038;-68
2021/08/16 06:29:48;;;;;;;14.45;10.93;;;;;;;17.15;100.00;100861.78;5149622;29;20031;-68
2021/08/16 06:32:20;;;;;;;17.92;10.25;;;;;;;17.21;100.00;100859.28;5149868;28;20050;-68
2021/08/16 06:34:51;;;;;;;19.75;10.40;;;;;;;17.25;100.00;100867.72;5143238;28;20041;-68
2021/08/16 06:37:22;;;;;;;17.73;10.35;;;;;;;17.22;100.00;100860.94;5139192;28;20122;-68
2021/08/16 06:39:53;;;;;;;19.65;11.10;;;;;;;17.24;100.00;100872.19;5146538;28;20032;-68
2021/08/16 06:42:25;;;;;;;17.42;10.48;;;;;;;17.24;100.00;100863.41;5151752;28;20102;-68
2021/08/16 06:44:57;;;;;;;16.63;10.55;;;;;;;17.17;100.00;100857.97;5150100;28;20027;-68
2021/08/16 06:47:28;;;;;;;14.93;9.97;;;;;;;17.23;100.00;100864.41;5149404;28;20093;-68
2021/08/16 06:50:00;;;;;;;19.05;10.98;;;;;;;17.24;100.00;100864.25;5150538;28;20469;-69
2021/08/16 06:52:31;;;;;;;17.80;9.63;;;;;;;17.27;100.00;100866.56;5150618;28;20030;-68
2021/08/16 06:55:03;;;;;;;15.80;9.32;;;;;;;17.31;100.00;100868.81;5146793;28;20045;-68
2021/08/16 06:57:34;;;;;;;20.10;10.27;;;;;;;17.27;100.00;100871.00;5150976;28;20535;-68
2021/08/16 07:00:06;;;;;;;18.98;9.70;;;;;;;17.30;100.00;100877.78;5148935;28;20540;-68
2021/08/16 07:02:39;;;;;;;17.13;9.05;;;;;;;17.34;100.00;100877.25;5149469;29;20027;-68
2021/08/16 07:05:11;;;;;;;;;;;;;;;17.50;100.00;100874.53;5146912;29;20086;-68
2021/08/16 07:07:42;;;;;;;18.25;9.73;;;;;;;17.29;100.00;100870.84;5137275;28;19922;-68
2021/08/16 07:10:13;;;;;;;16.90;9.77;;;;;;;17.25;100.00;100876.47;5144946;28;20035;-68
2021/08/16 07:12:45;;;;;;;20.37;11.67;;;;;;;17.31;100.00;100879.41;5130655;28;20749;-68
2021/08/16 07:15:16;;;;;;;14.43;9.75;;;;;;;17.29;100.00;100879.59;5136628;28;20449;-68
2021/08/16 07:17:47;;;;;;;16.52;9.38;;;;;;;17.27;100.00;100879.78;5136381;29;20737;-68
2021/08/16 07:20:19;;;;;;;17.55;10.48;;;;;;;17.28;100.00;100888.56;5138005;28;20468;-68
2021/08/16 07:22:50;;;;;;;17.95;10.63;;;;;;;17.24;100.00;100889.91;5135064;28;20511;-68
2021/08/16 07:25:21;;;;;;;19.08;10.88;;;;;;;17.19;100.00;100885.09;5147312;28;20035;-68
2021/08/16 07:27:53;;;;;;;20.02;11.25;;;;;;;17.08;100.00;100880.19;5150013;28;20023;-68
2021/08/16 07:30:24;;;;;;;23.58;10.95;;;;;;;17.11;100.00;100882.50;5149735;28;21004;-68
2021/08/16 07:32:55;;;;;;;15.43;10.82;;;;;;;16.99;100.00;100867.97;5148559;28;20053;-67
2021/08/16 07:35:26;;;;;;;20.17;11.55;;;;;;;17.01;100.00;100868.66;5145517;28;20073;-67
2021/08/16 07:37:58;;;;;;;21.90;11.73;;;;;;;16.99;100.00;100875.94;5148227;29;20031;-68
2021/08/16 07:40:29;;;;;;;16.70;11.30;;;;;;;16.96;100.00;100876.25;5146536;28;20023;-67
2021/08/16 07:43:00;;;;;;;21.25;12.55;;;;;;;16.93;100.00;100882.75;5147302;28;20035;-67
2021/08/16 07:45:32;;;;;;;16.50;12.27;;;;;;;16.88;100.00;100892.16;5146396;28;20031;-67
2021/08/16 07:48:03;;;;;;;19.42;13.30;;;;;;;16.81;100.00;100889.38;5149597;28;20019;-67
2021/08/16 07:50:35;;;;;;;19.67;13.40;;;;;;;16.72;100.00;100899.13;5149535;28;20063;-67
2021/08/16 07:53:07;;;;;;;20.92;12.75;;;;;;;16.72;100.00;100919.47;5150202;28;20505;-67
2021/08/16 07:55:38;;;;;;;19.17;13.80;;;;;;;16.71;100.00;100916.00;5148729;28;20034;-67
2021/08/16 07:58:09;;;;;;;15.10;11.73;;;;;;;16.62;100.00;100922.28;5150001;28;20279;-66
2021/08/16 08:00:41;;;;;;;9.77;8.10;;;;;;;16.50;100.00;100918.34;5153052;28;20031;-67
2021/08/16 08:03:12;;;;;;;9.20;5.28;;;;;;;16.41;100.00;100914.88;5154956;28;20027;-67
2021/08/16 08:05:43;;;;;;;6.90;5.72;;;;;;;16.44;100.00;100921.63;5150681;28;20110;-66
2021/08/16 08:08:15;;;;;;;6.20;4.72;;;;;;;16.38;100.00;100915.22;5151431;28;20029;-67
2021/08/16 08:10:46;;;;;;;7.07;4.82;;;;;;;16.38;100.00;100919.69;5147774;28;20031;-67
2021/08/16 08:13:17;;;;;;;5.97;4.43;;;;;;;16.39;100.00;100921.31;5147957;28;20077;-67
2021/08/16 08:15:48;;;;;;;5.88;3.75;;;;;;;16.44;100.00;100925.13;5151443;28;20027;-67
2021/08/16 08:18:20;;;;;;;5.18;3.63;;;;;;;16.41;100.00;100920.16;5151475;28;20553;-67
2021/08/16 08:20:51;;;;;;;5.47;3.70;;;;;;;16.50;100.00;100928.91;5152692;28;20485;-67
2021/08/16 08:23:22;;;;;;;4.88;3.92;;;;;;;16.53;100.00;100939.16;5152211;28;20023;-67
2021/08/16 08:25:54;;;;;;;7.55;3.90;;;;;;;16.53;100.00;100939.16;5150963;28;20471;-67
2021/08/16 08:28:25;;;;;;;5.30;4.63;;;;;;;16.50;100.00;100952.72;5153654;28;20159;-67
2021/08/16 08:30:56;;;;;;;6.72;4.40;;;;;;;16.54;100.00;100951.38;5151448;28;20077;-67
2021/08/16 08:33:27;;;;;;;4.63;3.78;;;;;;;16.49;100.00;100961.66;5151564;28;20027;-67
2021/08/16 08:35:59;;;;;;;7.28;4.50;;;;;;;16.47;100.00;100960.97;5153099;28;20027;-67
2021/08/16 08:38:30;;;;;;;5.73;3.43;;;;;;;16.44;100.00;100964.81;5153298;28;20035;-67
2021/08/16 08:41:03;;;;;;;6.65;3.40;;;;;;;16.45;100.00;100958.50;5151729;28;20361;-67
2021/08/16 08:43:36;;;;;;;6.13;3.38;;;;;;;16.46;100.00;100972.56;5153064;29;20035;-66
2021/08/16 08:46:08;;;;;;;6.65;3.22;;;;;;;16.46;100.00;100967.25;5154326;29;20015;-66
2021/08/16 08:48:39;;;;;;;6.80;3.20;;;;;;;16.54;100.00;100972.53;5149708;29;20050;-66
2021/08/16 08:51:10;;;;;;;5.30;3.33;;;;;;;16.45;100.00;100973.56;5153077;28;20122;-67
2021/08/16 08:53:42;;;;;;;5.65;3.40;;;;;;;16.43;100.00;100981.63;5150087;28;20098;-67
2021/08/16 08:56:15;;;;;;;6.18;3.58;;;;;;;16.41;100.00;100982.81;5152813;29;20673;-67
2021/08/16 08:58:46;;;;;;;7.25;4.05;;;;;;;16.39;100.00;100979.50;5152333;28;20106;-66
2021/08/16 09:01:18;;;;;;;7.07;4.10;;;;;;;16.39;100.00;100990.06;5153454;28;20027;-67
2021/08/16 09:03:51;;;;;;;7.72;4.32;;;;;;;16.37;100.00;100998.19;5152010;28;20024;-67
2021/08/16 09:06:28;;;;;;;9.32;4.28;;;;;;;16.41;100.00;100996.84;5149682;28;20401;-67
2021/08/16 09:09:00;;;;;;;8.27;4.55;;;;;;;16.43;100.00;101002.78;5150895;28;20106;-67
2021/08/16 09:11:32;;;;;;;8.68;4.57;;;;;;;16.52;100.00;101012.41;5151093;28;20032;-67
2021/08/16 09:14:05;;;;;;;6.70;4.53;;;;;;;16.60;100.00;101008.09;5153907;29;20034;-67
2021/08/16 09:16:38;;;;;;;10.55;4.80;;;;;;;16.64;100.00;101004.97;5152292;28;20023;-67
2021/08/16 09:19:18;;;;;;;10.02;4.18;;;;;;;16.75;100.00;101012.59;5151317;29;20081;-67
2021/08/16 09:24:34;;;;;;;7.78;3.47;;;;;;;16.65;100.00;101011.91;5151001;28;20122;-67
2021/08/16 09:27:10;;;;;;;8.52;4.00;;;;;;;16.68;100.00;101011.56;5148658;28;20031;-67
2021/08/16 09:29:49;;;;;;;10.43;3.95;;;;;;;16.73;100.00;101019.84;5146461;29;20509;-67
2021/08/16 09:32:31;;;;;;;9.02;3.63;;;;;;;16.76;100.00;101013.41;5150716;28;20047;-67
2021/08/16 09:35:09;;;;;;;7.13;4.00;;;;;;;16.84;100.00;101008.13;5146160;28;20034;-67
2021/08/16 09:37:41;;;;;;;9.25;3.78;;;;;;;16.96;100.00;101011.25;5148992;28;20036;-67
2021/08/16 09:40:20;;;;;;;6.97;4.10;;;;;;;17.17;100.00;101006.25;5146705;28;20015;-67
2021/08/16 09:42:54;;;;;;;9.27;3.95;;;;;;;17.39;100.00;101017.13;5153928;28;20041;-67
2021/08/16 09:45:33;;;;;;;10.80;3.78;;;;;;;17.42;100.00;101009.63;5149177;28;20788;-67
2021/08/16 09:48:07;;;;;;;5.90;3.08;;;;;;;17.51;100.00;101024.50;5149040;28;20458;-67
2021/08/16 09:50:42;;;;;;;7.93;3.30;;;;;;;17.35;100.00;101024.56;5150939;28;20023;-67
2021/08/16 09:53:19;;;;;;;8.43;3.45;;;;;;;17.14;100.00;101032.22;5152359;28;20513;-67
2021/08/16 09:56:04;;;;;;;11.43;4.05;;;;;;;17.06;100.00;101045.47;5148742;28;20415;-67
2021/08/16 09:58:36;;;;;;;9.93;3.80;;;;;;;16.87;100.00;101058.06;5151334;28;20042;-67
2021/08/16 10:01:07;;;;;;;8.43;3.55;;;;;;;16.69;100.00;101044.97;5149961;28;20019;-67
2021/08/16 10:03:40;;;;;;;8.73;3.78;;;;;;;16.49;100.00;101043.63;5149945;28;20501;-67
2021/08/16 10:06:18;;;;;;;;;;;;;;;16.82;100.00;101051.59;5152509;28;20031;-67
2021/08/16 10:08:52;;;;;;;10.57;4.03;;;;;;;16.45;100.00;101050.25;5151940;28;19928;-67
2021/08/16 10:11:24;;;;;;;10.05;3.95;;;;;;;16.46;100.00;101059.81;5152278;28;20026;-67
2021/08/16 10:13:58;;;;;;;13.20;4.97;;;;;;;16.59;100.00;101061.97;5150834;28;20031;-67
2021/08/16 10:16:36;;;;;;;8.95;4.32;;;;;;;16.63;100.00;101077.38;5151717;28;20050;-67
2021/08/16 10:19:15;;;;;;;10.73;4.40;;;;;;;16.65;100.00;101069.28;5150364;28;20035;-68
2021/08/16 10:21:47;;;;;;;11.10;5.10;;;;;;;16.66;100.00;101074.38;5150573;28;20113;-67
2021/08/16 10:24:23;;;;;;;5.20;4.30;;;;;;;16.64;100.00;101083.50;5151368;28;20031;-67
2021/08/16 10:26:56;;;;;;;11.98;4.90;;;;;;;16.58;100.00;101074.38;5151164;28;20027;-69
2021/08/16 10:29:28;;;;;;;13.23;5.55;;;;;;;16.64;100.00;101065.81;5149129;28;20046;-68
2021/08/16 10:32:00;;;;;;;10.63;5.03;;;;;;;16.65;100.00;101083.31;5144068;28;20433;-69
2021/08/16 10:34:38;;;;;;;10.13;4.97;;;;;;;16.79;100.00;101092.47;5145334;28;20034;-70
2021/08/16 10:37:12;;;;;;;10.68;5.20;;;;;;;16.86;100.00;101082.03;5151892;28;20023;-69
2021/08/16 10:39:46;;;;;;;15.60;6.55;;;;;;;16.91;100.00;101088.50;5145593;28;20087;-68
2021/08/16 10:42:19;;;;;;;10.60;5.15;;;;;;;17.00;100.00;101102.53;5149069;28;20043;-68
2021/08/16 10:44:53;;;;;;;12.10;6.13;;;;;;;17.01;100.00;101090.97;5146634;28;20621;-68
2021/08/16 10:47:26;;;;;;;13.10;6.43;;;;;;;17.10;100.00;101103.22;5144444;28;20058;-69
2021/08/16 10:50:20;;;;;;;14.20;6.50;;;;;;;17.35;100.00;101106.69;5150067;28;20082;-69
2021/08/16 10:53:08;;;;;;;9.93;6.10;;;;;;;17.48;100.00;101099.03;5136070;28;20461;-69
2021/08/16 10:55:42;;;;;;;12.57;6.85;;;;;;;17.64;100.00;101107.91;5144777;28;20038;-68
2021/08/16 10:58:13;;;;;;;14.25;6.10;;;;;;;17.64;100.00;101106.09;5149986;28;20030;-70
2021/08/16 11:00:45;;;;;;;12.85;6.95;;;;;;;17.70;100.00;101097.47;5147742;28;20037;-68
2021/08/16 11:03:23;;;;;;;11.38;6.85;;;;;;;17.58;100.00;101077.66;5149607;28;20035;-70
2021/08/16 11:05:55;;;;;;;14.15;7.57;;;;;;;17.74;100.00;101096.13;5144922;28;20062;-68
2021/08/16 11:08:30;;;;;;;10.45;6.63;;;;;;;17.75;100.00;101112.88;5143777;28;20159;-69
2021/08/16 11:11:06;;;;;;;13.23;7.95;;;;;;;17.79;100.00;101100.94;5146906;28;20052;-68
2021/08/16 11:13:37;;;;;;;12.93;7.20;;;;;;;17.81;100.00;101103.44;5148452;28;20487;-68
2021/08/16 11:16:08;;;;;;;11.88;7.72;;;;;;;17.86;100.00;101112.53;5150340;28;20035;-69
2021/08/16 11:18:40;;;;;;;13.05;8.05;;;;;;;18.01;100.00;101111.81;5151715;28;20019;-70
2021/08/16 11:21:12;;;;;;;14.88;9.02;;;;;;;18.02;100.00;101110.81;5150506;29;20019;-69
2021/08/16 11:23:43;;;;;;;17.80;9.27;;;;;;;18.22;100.00;101123.50;5150914;28;20035;-67
2021/08/16 11:26:15;;;;;;;13.83;8.80;;;;;;;18.21;100.00;101121.00;5146567;28;20159;-68
2021/08/16 11:28:46;;;;;;;16.30;9.53;;;;;;;18.20;100.00;101128.13;5147259;28;20074;-69
2021/08/16 11:31:23;;;;;;;14.10;9.60;;;;;;;18.09;100.00;101127.69;5149684;29;20438;-68
2021/08/16 11:34:04;;;;;;;16.10;10.68;;;;;;;17.98;100.00;101142.97;5148744;28;20035;-68
2021/08/16 11:36:36;;;;;;;14.23;10.50;;;;;;;17.76;100.00;101143.69;5146968;28;20130;-68